sensor_id;sensor_type;location;lat;lon;timestamp;temperature;humidity
55213;DHT22;41083;52.932;6.674;2024-01-10T00:01:18;-2.50;99.90
55213;DHT22;41083;52.932;6.674;2024-01-10T00:03:44;-2.50;99.90
55213;DHT22;41083;52.932;6.674;2024-01-10T00:06:10;-2.50;99.90
55213;DHT22;41083;52.932;6.674;2024-01-10T00:08:37;-2.50;99.90
55213;DHT22;41083;52.932;6.674;2024-01-10T00:11:03;-2.50;99.90
55213;DHT22;41083;52.932;6.674;2024-01-10T00:13:31;-2.50;99.90
55213;DHT22;41083;52.932;6.674;2024-01-10T00:15:57;-2.50;99.90
55213;DHT22;41083;52.932;6.674;2024-01-10T00:18:24;-2.50;99.90
55213;DHT22;41083;52.932;6.674;2024-01-10T00:20:51;-2.50;99.90
55213;DHT22;41083;52.932;6.674;2024-01-10T00:23:19;-2.50;99.90
55213;DHT22;41083;52.932;6.674;2024-01-10T00:25:45;-2.50;99.90
55213;DHT22;41083;52.932;6.674;2024-01-10T00:28:11;-2.50;99.90
55213;DHT22;41083;52.932;6.674;2024-01-10T00:30:38;-2.50;99.90
55213;DHT22;41083;52.932;6.674;2024-01-10T00:33:03;-2.50;99.90
55213;DHT22;41083;52.932;6.674;2024-01-10T00:35:31;-2.50;99.90
55213;DHT22;41083;52.932;6.674;2024-01-10T00:37:56;-2.50;99.90
55213;DHT22;41083;52.932;6.674;2024-01-10T00:40:23;-2.50;99.90
55213;DHT22;41083;52.932;6.674;2024-01-10T00:42:49;-2.50;99.90
55213;DHT22;41083;52.932;6.674;2024-01-10T00:45:16;-2.50;99.90
55213;DHT22;41083;52.932;6.674;2024-01-10T00:47:42;-2.50;99.90
55213;DHT22;41083;52.932;6.674;2024-01-10T00:50:08;-2.60;99.90
55213;DHT22;41083;52.932;6.674;2024-01-10T00:52:34;-2.60;99.90
55213;DHT22;41083;52.932;6.674;2024-01-10T00:55:00;-2.60;99.90
55213;DHT22;41083;52.932;6.674;2024-01-10T00:57:26;-2.50;99.90
55213;DHT22;41083;52.932;6.674;2024-01-10T00:59:51;-2.60;99.90
55213;DHT22;41083;52.932;6.674;2024-01-10T01:02:17;-2.60;99.90
55213;DHT22;41083;52.932;6.674;2024-01-10T01:04:43;-2.60;99.90
55213;DHT22;41083;52.932;6.674;2024-01-10T01:07:09;-2.60;99.90
55213;DHT22;41083;52.932;6.674;2024-01-10T01:09:35;-2.60;99.90
55213;DHT22;41083;52.932;6.674;2024-01-10T01:12:00;-2.60;99.90
55213;DHT22;41083;52.932;6.674;2024-01-10T01:14:26;-2.60;99.90
55213;DHT22;41083;52.932;6.674;2024-01-10T01:16:53;-2.60;99.90
55213;DHT22;41083;52.932;6.674;2024-01-10T01:19:18;-2.60;99.90
55213;DHT22;41083;52.932;6.674;2024-01-10T01:21:44;-2.60;99.90
55213;DHT22;41083;52.932;6.674;2024-01-10T01:24:10;-2.60;99.90
55213;DHT22;41083;52.932;6.674;2024-01-10T01:26:36;-2.60;99.90
55213;DHT22;41083;52.932;6.674;2024-01-10T01:29:02;-2.60;99.90
55213;DHT22;41083;52.932;6.674;2024-01-10T01:31:27;-2.60;99.90
55213;DHT22;41083;52.932;6.674;2024-01-10T01:33:53;-2.60;99.90
55213;DHT22;41083;52.932;6.674;2024-01-10T01:36:19;-2.60;99.90
55213;DHT22;41083;52.932;6.674;2024-01-10T01:38:44;-2.60;99.90
55213;DHT22;41083;52.932;6.674;2024-01-10T01:41:10;-2.60;99.90
55213;DHT22;41083;52.932;6.674;2024-01-10T01:43:36;-2.60;99.90
55213;DHT22;41083;52.932;6.674;2024-01-10T01:46:02;-2.60;99.90
55213;DHT22;41083;52.932;6.674;2024-01-10T01:48:29;-2.60;99.90
55213;DHT22;41083;52.932;6.674;2024-01-10T01:50:58;-2.60;99.90
55213;DHT22;41083;52.932;6.674;2024-01-10T01:53:26;-2.60;99.90
55213;DHT22;41083;52.932;6.674;2024-01-10T01:55:52;-2.70;99.90
55213;DHT22;41083;52.932;6.674;2024-01-10T01:58:19;-2.70;99.90
55213;DHT22;41083;52.932;6.674;2024-01-10T02:00:46;-2.70;99.90
55213;DHT22;41083;52.932;6.674;2024-01-10T02:03:11;-2.70;99.90
55213;DHT22;41083;52.932;6.674;2024-01-10T02:05:38;-2.70;99.90
55213;DHT22;41083;52.932;6.674;2024-01-10T02:08:03;-2.70;99.90
55213;DHT22;41083;52.932;6.674;2024-01-10T02:10:29;-2.70;99.90
55213;DHT22;41083;52.932;6.674;2024-01-10T02:12:55;-2.70;99.90
55213;DHT22;41083;52.932;6.674;2024-01-10T02:15:21;-2.70;99.90
55213;DHT22;41083;52.932;6.674;2024-01-10T02:17:47;-2.70;99.90
55213;DHT22;41083;52.932;6.674;2024-01-10T02:20:13;-2.80;99.90
55213;DHT22;41083;52.932;6.674;2024-01-10T02:22:39;-2.80;99.90
55213;DHT22;41083;52.932;6.674;2024-01-10T02:25:10;-2.90;99.90
55213;DHT22;41083;52.932;6.674;2024-01-10T02:27:36;-2.90;99.90
55213;DHT22;41083;52.932;6.674;2024-01-10T02:30:03;-2.90;99.90
55213;DHT22;41083;52.932;6.674;2024-01-10T02:32:29;-2.90;99.90
55213;DHT22;41083;52.932;6.674;2024-01-10T02:34:54;-2.90;99.90
55213;DHT22;41083;52.932;6.674;2024-01-10T02:37:20;-2.80;99.90
55213;DHT22;41083;52.932;6.674;2024-01-10T02:39:46;-2.80;99.90
55213;DHT22;41083;52.932;6.674;2024-01-10T02:42:11;-2.80;99.90
55213;DHT22;41083;52.932;6.674;2024-01-10T02:44:37;-2.80;99.90
55213;DHT22;41083;52.932;6.674;2024-01-10T02:47:03;-2.80;99.90
55213;DHT22;41083;52.932;6.674;2024-01-10T02:49:29;-2.80;99.90
55213;DHT22;41083;52.932;6.674;2024-01-10T02:51:55;-2.80;99.90
55213;DHT22;41083;52.932;6.674;2024-01-10T02:54:20;-2.80;99.90
55213;DHT22;41083;52.932;6.674;2024-01-10T02:56:46;-2.80;99.90
55213;DHT22;41083;52.932;6.674;2024-01-10T02:59:12;-2.80;99.90
55213;DHT22;41083;52.932;6.674;2024-01-10T03:01:37;-2.80;99.90
55213;DHT22;41083;52.932;6.674;2024-01-10T03:04:03;-2.90;99.90
55213;DHT22;41083;52.932;6.674;2024-01-10T03:06:29;-2.90;99.90
55213;DHT22;41083;52.932;6.674;2024-01-10T03:08:55;-2.90;99.90
55213;DHT22;41083;52.932;6.674;2024-01-10T03:11:21;-2.90;99.90
55213;DHT22;41083;52.932;6.674;2024-01-10T03:13:50;-2.90;99.90
55213;DHT22;41083;52.932;6.674;2024-01-10T03:16:16;-2.90;99.90
55213;DHT22;41083;52.932;6.674;2024-01-10T03:18:41;-2.90;99.90
55213;DHT22;41083;52.932;6.674;2024-01-10T03:21:08;-2.90;99.90
55213;DHT22;41083;52.932;6.674;2024-01-10T03:23:33;-3.00;99.90
55213;DHT22;41083;52.932;6.674;2024-01-10T03:25:59;-3.00;99.90
55213;DHT22;41083;52.932;6.674;2024-01-10T03:28:25;-3.00;99.90
55213;DHT22;41083;52.932;6.674;2024-01-10T03:30:50;-3.00;99.90
55213;DHT22;41083;52.932;6.674;2024-01-10T03:33:16;-3.00;99.90
55213;DHT22;41083;52.932;6.674;2024-01-10T03:35:42;-3.00;99.90
55213;DHT22;41083;52.932;6.674;2024-01-10T03:38:08;-3.00;99.90
55213;DHT22;41083;52.932;6.674;2024-01-10T03:40:34;-3.00;99.90
55213;DHT22;41083;52.932;6.674;2024-01-10T03:42:59;-3.00;99.90
55213;DHT22;41083;52.932;6.674;2024-01-10T03:45:25;-3.00;99.90
55213;DHT22;41083;52.932;6.674;2024-01-10T03:47:51;-2.90;99.90
55213;DHT22;41083;52.932;6.674;2024-01-10T03:50:18;-2.90;99.90
55213;DHT22;41083;52.932;6.674;2024-01-10T03:52:45;-3.00;99.90
55213;DHT22;41083;52.932;6.674;2024-01-10T03:55:12;-2.90;99.90
55213;DHT22;41083;52.932;6.674;2024-01-10T03:57:39;-3.00;99.90
55213;DHT22;41083;52.932;6.674;2024-01-10T04:00:05;-3.00;99.90
55213;DHT22;41083;52.932;6.674;2024-01-10T04:02:32;-3.00;99.90
55213;DHT22;41083;52.932;6.674;2024-01-10T04:04:58;-3.00;99.90
55213;DHT22;41083;52.932;6.674;2024-01-10T04:07:24;-3.00;99.90
55213;DHT22;41083;52.932;6.674;2024-01-10T04:09:51;-3.00;99.90
55213;DHT22;41083;52.932;6.674;2024-01-10T04:12:16;-3.00;99.90
55213;DHT22;41083;52.932;6.674;2024-01-10T04:14:42;-3.00;99.90
55213;DHT22;41083;52.932;6.674;2024-01-10T04:17:08;-3.00;99.90
55213;DHT22;41083;52.932;6.674;2024-01-10T04:19:34;-3.00;99.90
55213;DHT22;41083;52.932;6.674;2024-01-10T04:22:00;-3.00;99.90
55213;DHT22;41083;52.932;6.674;2024-01-10T04:24:26;-3.00;99.90
55213;DHT22;41083;52.932;6.674;2024-01-10T04:26:51;-3.00;99.90
55213;DHT22;41083;52.932;6.674;2024-01-10T04:29:17;-3.10;99.90
55213;DHT22;41083;52.932;6.674;2024-01-10T04:31:43;-3.10;99.90
55213;DHT22;41083;52.932;6.674;2024-01-10T04:34:08;-3.10;99.90
55213;DHT22;41083;52.932;6.674;2024-01-10T04:36:34;-3.10;99.90
55213;DHT22;41083;52.932;6.674;2024-01-10T04:39:00;-3.10;99.90
55213;DHT22;41083;52.932;6.674;2024-01-10T04:41:26;-3.10;99.90
55213;DHT22;41083;52.932;6.674;2024-01-10T04:43:51;-3.10;99.90
55213;DHT22;41083;52.932;6.674;2024-01-10T04:46:17;-3.10;99.90
55213;DHT22;41083;52.932;6.674;2024-01-10T04:48:43;-3.10;99.90
55213;DHT22;41083;52.932;6.674;2024-01-10T04:51:09;-3.10;99.90
55213;DHT22;41083;52.932;6.674;2024-01-10T04:53:35;-3.10;99.90
55213;DHT22;41083;52.932;6.674;2024-01-10T04:56:00;-3.10;99.90
55213;DHT22;41083;52.932;6.674;2024-01-10T04:58:26;-3.10;99.90
55213;DHT22;41083;52.932;6.674;2024-01-10T05:00:52;-3.10;99.90
55213;DHT22;41083;52.932;6.674;2024-01-10T05:03:17;-3.10;99.90
55213;DHT22;41083;52.932;6.674;2024-01-10T05:05:43;-3.10;99.90
55213;DHT22;41083;52.932;6.674;2024-01-10T05:08:09;-3.10;99.90
55213;DHT22;41083;52.932;6.674;2024-01-10T05:10:34;-3.20;99.90
55213;DHT22;41083;52.932;6.674;2024-01-10T05:13:00;-3.20;99.90
55213;DHT22;41083;52.932;6.674;2024-01-10T05:15:26;-3.20;99.90
55213;DHT22;41083;52.932;6.674;2024-01-10T05:17:51;-3.20;99.90
55213;DHT22;41083;52.932;6.674;2024-01-10T05:20:17;-3.20;99.90
55213;DHT22;41083;52.932;6.674;2024-01-10T05:22:43;-3.20;99.90
55213;DHT22;41083;52.932;6.674;2024-01-10T05:25:09;-3.20;99.90
55213;DHT22;41083;52.932;6.674;2024-01-10T05:27:35;-3.20;99.90
55213;DHT22;41083;52.932;6.674;2024-01-10T05:30:01;-3.20;99.90
55213;DHT22;41083;52.932;6.674;2024-01-10T05:32:26;-3.20;99.90
55213;DHT22;41083;52.932;6.674;2024-01-10T05:34:53;-3.20;99.90
55213;DHT22;41083;52.932;6.674;2024-01-10T05:37:19;-3.20;99.90
55213;DHT22;41083;52.932;6.674;2024-01-10T05:39:44;-3.20;99.90
55213;DHT22;41083;52.932;6.674;2024-01-10T05:42:10;-3.20;99.90
55213;DHT22;41083;52.932;6.674;2024-01-10T05:44:36;-3.20;99.90
55213;DHT22;41083;52.932;6.674;2024-01-10T05:47:02;-3.20;99.90
55213;DHT22;41083;52.932;6.674;2024-01-10T05:49:28;-3.20;99.90
55213;DHT22;41083;52.932;6.674;2024-01-10T05:51:54;-3.20;99.90
55213;DHT22;41083;52.932;6.674;2024-01-10T05:54:19;-3.20;99.90
55213;DHT22;41083;52.932;6.674;2024-01-10T05:56:45;-3.20;99.90
55213;DHT22;41083;52.932;6.674;2024-01-10T05:59:11;-3.20;99.90
55213;DHT22;41083;52.932;6.674;2024-01-10T06:01:37;-3.20;99.90
55213;DHT22;41083;52.932;6.674;2024-01-10T06:04:06;-3.20;99.90
55213;DHT22;41083;52.932;6.674;2024-01-10T06:06:32;-3.20;99.90
55213;DHT22;41083;52.932;6.674;2024-01-10T06:08:58;-3.20;99.90
55213;DHT22;41083;52.932;6.674;2024-01-10T06:11:24;-3.20;99.90
55213;DHT22;41083;52.932;6.674;2024-01-10T06:13:49;-3.20;99.90
55213;DHT22;41083;52.932;6.674;2024-01-10T06:16:15;-3.30;99.90
55213;DHT22;41083;52.932;6.674;2024-01-10T06:18:41;-3.30;99.90
55213;DHT22;41083;52.932;6.674;2024-01-10T06:21:08;-3.30;99.90
55213;DHT22;41083;52.932;6.674;2024-01-10T06:23:33;-3.30;99.90
55213;DHT22;41083;52.932;6.674;2024-01-10T06:25:59;-3.30;99.90
55213;DHT22;41083;52.932;6.674;2024-01-10T06:28:24;-3.30;99.90
55213;DHT22;41083;52.932;6.674;2024-01-10T06:30:50;-3.30;99.90
55213;DHT22;41083;52.932;6.674;2024-01-10T06:33:16;-3.30;99.90
55213;DHT22;41083;52.932;6.674;2024-01-10T06:35:42;-3.30;99.90
55213;DHT22;41083;52.932;6.674;2024-01-10T06:38:09;-3.30;99.90
55213;DHT22;41083;52.932;6.674;2024-01-10T06:40:35;-3.30;99.90
55213;DHT22;41083;52.932;6.674;2024-01-10T06:43:03;-3.20;99.90
55213;DHT22;41083;52.932;6.674;2024-01-10T06:45:29;-3.20;99.90
55213;DHT22;41083;52.932;6.674;2024-01-10T06:47:55;-3.20;99.90
55213;DHT22;41083;52.932;6.674;2024-01-10T06:50:20;-3.20;99.90
55213;DHT22;41083;52.932;6.674;2024-01-10T06:52:47;-3.20;99.90
55213;DHT22;41083;52.932;6.674;2024-01-10T06:55:13;-3.20;99.90
55213;DHT22;41083;52.932;6.674;2024-01-10T06:57:39;-3.20;99.90
55213;DHT22;41083;52.932;6.674;2024-01-10T07:00:05;-3.20;99.90
55213;DHT22;41083;52.932;6.674;2024-01-10T07:02:37;-3.30;99.90
55213;DHT22;41083;52.932;6.674;2024-01-10T07:05:06;-3.30;99.90
55213;DHT22;41083;52.932;6.674;2024-01-10T07:07:32;-3.30;99.90
55213;DHT22;41083;52.932;6.674;2024-01-10T07:09:59;-3.30;99.90
55213;DHT22;41083;52.932;6.674;2024-01-10T07:12:25;-3.30;99.90
55213;DHT22;41083;52.932;6.674;2024-01-10T07:14:51;-3.30;99.90
55213;DHT22;41083;52.932;6.674;2024-01-10T07:17:17;-3.30;99.90
55213;DHT22;41083;52.932;6.674;2024-01-10T07:19:42;-3.30;99.90
55213;DHT22;41083;52.932;6.674;2024-01-10T07:22:08;-3.30;99.90
55213;DHT22;41083;52.932;6.674;2024-01-10T07:24:35;-3.30;99.90
55213;DHT22;41083;52.932;6.674;2024-01-10T07:27:01;-3.30;99.90
55213;DHT22;41083;52.932;6.674;2024-01-10T07:29:27;-3.30;99.90
55213;DHT22;41083;52.932;6.674;2024-01-10T07:31:52;-3.30;99.90
55213;DHT22;41083;52.932;6.674;2024-01-10T07:34:19;-3.30;99.90
55213;DHT22;41083;52.932;6.674;2024-01-10T07:36:46;-3.40;99.90
55213;DHT22;41083;52.932;6.674;2024-01-10T07:39:12;-3.40;99.90
55213;DHT22;41083;52.932;6.674;2024-01-10T07:41:41;-3.40;99.90
55213;DHT22;41083;52.932;6.674;2024-01-10T07:44:07;-3.40;99.90
55213;DHT22;41083;52.932;6.674;2024-01-10T07:46:35;-3.40;99.90
55213;DHT22;41083;52.932;6.674;2024-01-10T07:49:03;-3.40;99.90
55213;DHT22;41083;52.932;6.674;2024-01-10T07:51:30;-3.30;99.90
55213;DHT22;41083;52.932;6.674;2024-01-10T07:53:56;-3.40;99.90
55213;DHT22;41083;52.932;6.674;2024-01-10T07:56:22;-3.30;99.90
55213;DHT22;41083;52.932;6.674;2024-01-10T07:58:47;-3.30;99.90
55213;DHT22;41083;52.932;6.674;2024-01-10T08:01:15;-3.30;99.90
55213;DHT22;41083;52.932;6.674;2024-01-10T08:03:41;-3.30;99.90
55213;DHT22;41083;52.932;6.674;2024-01-10T08:06:06;-3.30;99.90
55213;DHT22;41083;52.932;6.674;2024-01-10T08:08:32;-3.30;99.90
55213;DHT22;41083;52.932;6.674;2024-01-10T08:10:58;-3.30;99.90
55213;DHT22;41083;52.932;6.674;2024-01-10T08:13:24;-3.30;99.90
55213;DHT22;41083;52.932;6.674;2024-01-10T08:15:49;-3.30;99.90
55213;DHT22;41083;52.932;6.674;2024-01-10T08:18:16;-3.30;99.90
55213;DHT22;41083;52.932;6.674;2024-01-10T08:20:42;-3.30;99.90
55213;DHT22;41083;52.932;6.674;2024-01-10T08:23:08;-3.30;99.90
55213;DHT22;41083;52.932;6.674;2024-01-10T08:25:33;-3.30;99.90
55213;DHT22;41083;52.932;6.674;2024-01-10T08:27:59;-3.30;99.90
55213;DHT22;41083;52.932;6.674;2024-01-10T08:30:26;-3.30;99.90
55213;DHT22;41083;52.932;6.674;2024-01-10T08:32:52;-3.30;99.90
55213;DHT22;41083;52.932;6.674;2024-01-10T08:35:17;-3.30;99.90
55213;DHT22;41083;52.932;6.674;2024-01-10T08:37:44;-3.30;99.90
55213;DHT22;41083;52.932;6.674;2024-01-10T08:40:12;-3.30;99.90
55213;DHT22;41083;52.932;6.674;2024-01-10T08:42:40;-3.30;99.90
55213;DHT22;41083;52.932;6.674;2024-01-10T08:45:06;-3.30;99.90
55213;DHT22;41083;52.932;6.674;2024-01-10T08:47:35;-3.30;99.90
55213;DHT22;41083;52.932;6.674;2024-01-10T08:50:04;-3.30;99.90
55213;DHT22;41083;52.932;6.674;2024-01-10T08:52:34;-3.30;99.90
55213;DHT22;41083;52.932;6.674;2024-01-10T08:55:04;-3.30;99.90
55213;DHT22;41083;52.932;6.674;2024-01-10T08:57:30;-3.20;99.90
55213;DHT22;41083;52.932;6.674;2024-01-10T08:59:55;-3.20;99.90
55213;DHT22;41083;52.932;6.674;2024-01-10T09:02:21;-3.20;99.90
55213;DHT22;41083;52.932;6.674;2024-01-10T09:04:49;-3.10;99.90
55213;DHT22;41083;52.932;6.674;2024-01-10T09:07:15;-3.10;99.90
55213;DHT22;41083;52.932;6.674;2024-01-10T09:09:43;-3.10;99.90
55213;DHT22;41083;52.932;6.674;2024-01-10T09:12:09;-3.10;99.90
55213;DHT22;41083;52.932;6.674;2024-01-10T09:14:34;-3.10;99.90
55213;DHT22;41083;52.932;6.674;2024-01-10T09:17:00;-3.10;99.90
55213;DHT22;41083;52.932;6.674;2024-01-10T09:19:32;-3.10;99.90
55213;DHT22;41083;52.932;6.674;2024-01-10T09:21:58;-3.10;99.90
55213;DHT22;41083;52.932;6.674;2024-01-10T09:24:24;-3.10;99.90
55213;DHT22;41083;52.932;6.674;2024-01-10T09:26:52;-3.10;99.90
55213;DHT22;41083;52.932;6.674;2024-01-10T09:29:19;-3.10;99.90
55213;DHT22;41083;52.932;6.674;2024-01-10T09:31:44;-3.10;99.90
55213;DHT22;41083;52.932;6.674;2024-01-10T09:34:10;-3.00;99.90
55213;DHT22;41083;52.932;6.674;2024-01-10T09:36:36;-3.00;99.90
55213;DHT22;41083;52.932;6.674;2024-01-10T09:39:02;-3.00;99.90
55213;DHT22;41083;52.932;6.674;2024-01-10T09:41:32;-3.00;99.90
55213;DHT22;41083;52.932;6.674;2024-01-10T09:44:00;-2.90;99.90
55213;DHT22;41083;52.932;6.674;2024-01-10T09:46:26;-2.90;99.90
55213;DHT22;41083;52.932;6.674;2024-01-10T09:48:55;-2.90;99.90
55213;DHT22;41083;52.932;6.674;2024-01-10T09:51:21;-2.80;99.90
55213;DHT22;41083;52.932;6.674;2024-01-10T09:53:48;-2.80;99.90
55213;DHT22;41083;52.932;6.674;2024-01-10T09:56:15;-2.80;99.90
55213;DHT22;41083;52.932;6.674;2024-01-10T09:58:44;-2.80;99.90
55213;DHT22;41083;52.932;6.674;2024-01-10T10:01:11;-2.70;99.90
55213;DHT22;41083;52.932;6.674;2024-01-10T10:03:38;-2.70;99.90
55213;DHT22;41083;52.932;6.674;2024-01-10T10:06:08;-2.70;99.90
55213;DHT22;41083;52.932;6.674;2024-01-10T10:08:33;-2.70;99.90
55213;DHT22;41083;52.932;6.674;2024-01-10T10:10:59;-2.60;99.90
55213;DHT22;41083;52.932;6.674;2024-01-10T10:13:29;-2.60;99.90
55213;DHT22;41083;52.932;6.674;2024-01-10T10:16:02;-2.60;99.90
55213;DHT22;41083;52.932;6.674;2024-01-10T10:18:28;-2.60;99.90
55213;DHT22;41083;52.932;6.674;2024-01-10T10:21:10;-2.50;99.90
55213;DHT22;41083;52.932;6.674;2024-01-10T10:23:37;-2.50;99.90
55213;DHT22;41083;52.932;6.674;2024-01-10T10:26:11;-2.50;99.90
55213;DHT22;41083;52.932;6.674;2024-01-10T10:28:40;-2.50;99.90
55213;DHT22;41083;52.932;6.674;2024-01-10T10:31:06;-2.40;99.90
55213;DHT22;41083;52.932;6.674;2024-01-10T10:33:32;-2.40;99.90
55213;DHT22;41083;52.932;6.674;2024-01-10T10:35:58;-2.40;99.90
55213;DHT22;41083;52.932;6.674;2024-01-10T10:38:24;-2.40;99.90
55213;DHT22;41083;52.932;6.674;2024-01-10T10:40:50;-2.30;99.90
55213;DHT22;41083;52.932;6.674;2024-01-10T10:43:18;-2.30;99.90
55213;DHT22;41083;52.932;6.674;2024-01-10T10:45:48;-2.30;99.90
55213;DHT22;41083;52.932;6.674;2024-01-10T10:48:16;-2.20;99.90
55213;DHT22;41083;52.932;6.674;2024-01-10T10:51:04;-2.20;99.90
55213;DHT22;41083;52.932;6.674;2024-01-10T10:53:42;-2.20;99.90
55213;DHT22;41083;52.932;6.674;2024-01-10T10:56:12;-2.20;99.90
55213;DHT22;41083;52.932;6.674;2024-01-10T10:58:39;-2.10;99.90
55213;DHT22;41083;52.932;6.674;2024-01-10T11:01:07;-2.10;99.90
55213;DHT22;41083;52.932;6.674;2024-01-10T11:03:36;-2.10;99.90
55213;DHT22;41083;52.932;6.674;2024-01-10T11:06:03;-2.10;99.90
55213;DHT22;41083;52.932;6.674;2024-01-10T11:08:49;-2.10;99.90
55213;DHT22;41083;52.932;6.674;2024-01-10T11:17:13;-2.00;99.90
55213;DHT22;41083;52.932;6.674;2024-01-10T11:23:03;-1.90;99.90
55213;DHT22;41083;52.932;6.674;2024-01-10T11:25:35;-1.90;99.90
55213;DHT22;41083;52.932;6.674;2024-01-10T11:28:07;-1.80;99.90
55213;DHT22;41083;52.932;6.674;2024-01-10T11:30:37;-1.80;99.90
55213;DHT22;41083;52.932;6.674;2024-01-10T11:33:19;-1.80;99.90
55213;DHT22;41083;52.932;6.674;2024-01-10T11:36:08;-1.80;99.90
55213;DHT22;41083;52.932;6.674;2024-01-10T11:38:39;-1.70;99.90
55213;DHT22;41083;52.932;6.674;2024-01-10T11:41:06;-1.70;99.90
55213;DHT22;41083;52.932;6.674;2024-01-10T11:43:34;-1.70;99.90
55213;DHT22;41083;52.932;6.674;2024-01-10T11:46:02;-1.70;99.90
55213;DHT22;41083;52.932;6.674;2024-01-10T11:48:31;-1.60;99.90
55213;DHT22;41083;52.932;6.674;2024-01-10T11:50:58;-1.60;99.90
55213;DHT22;41083;52.932;6.674;2024-01-10T11:53:43;-1.60;99.90
55213;DHT22;41083;52.932;6.674;2024-01-10T11:56:15;-1.60;99.90
55213;DHT22;41083;52.932;6.674;2024-01-10T11:59:01;-1.60;99.90
55213;DHT22;41083;52.932;6.674;2024-01-10T12:01:28;-1.60;99.90
55213;DHT22;41083;52.932;6.674;2024-01-10T12:03:55;-1.50;99.90
55213;DHT22;41083;52.932;6.674;2024-01-10T12:06:22;-1.50;99.90
55213;DHT22;41083;52.932;6.674;2024-01-10T12:08:48;-1.50;99.90
55213;DHT22;41083;52.932;6.674;2024-01-10T12:11:15;-1.40;99.90
55213;DHT22;41083;52.932;6.674;2024-01-10T12:13:41;-1.40;99.90
55213;DHT22;41083;52.932;6.674;2024-01-10T12:16:07;-1.40;99.90
55213;DHT22;41083;52.932;6.674;2024-01-10T12:18:32;-1.40;99.90
55213;DHT22;41083;52.932;6.674;2024-01-10T12:20:59;-1.40;99.90
55213;DHT22;41083;52.932;6.674;2024-01-10T12:23:25;-1.40;99.90
55213;DHT22;41083;52.932;6.674;2024-01-10T12:25:56;-1.40;99.90
55213;DHT22;41083;52.932;6.674;2024-01-10T12:28:22;-1.30;99.90
55213;DHT22;41083;52.932;6.674;2024-01-10T12:30:48;-1.30;99.90
55213;DHT22;41083;52.932;6.674;2024-01-10T12:33:14;-1.30;99.90
55213;DHT22;41083;52.932;6.674;2024-01-10T12:35:39;-1.30;99.90
55213;DHT22;41083;52.932;6.674;2024-01-10T12:38:10;-1.30;99.90
55213;DHT22;41083;52.932;6.674;2024-01-10T12:40:37;-1.30;99.90
55213;DHT22;41083;52.932;6.674;2024-01-10T12:43:06;-1.30;99.90
55213;DHT22;41083;52.932;6.674;2024-01-10T12:45:33;-1.20;99.90
55213;DHT22;41083;52.932;6.674;2024-01-10T12:48:00;-1.20;99.90
55213;DHT22;41083;52.932;6.674;2024-01-10T12:50:25;-1.20;99.90
55213;DHT22;41083;52.932;6.674;2024-01-10T12:52:51;-1.20;99.90
55213;DHT22;41083;52.932;6.674;2024-01-10T12:55:17;-1.10;99.90
55213;DHT22;41083;52.932;6.674;2024-01-10T12:57:43;-1.10;99.90
55213;DHT22;41083;52.932;6.674;2024-01-10T13:00:09;-1.10;99.90
55213;DHT22;41083;52.932;6.674;2024-01-10T13:02:36;-1.10;99.90
55213;DHT22;41083;52.932;6.674;2024-01-10T13:05:06;-1.10;99.90
55213;DHT22;41083;52.932;6.674;2024-01-10T13:07:38;-1.10;99.90
55213;DHT22;41083;52.932;6.674;2024-01-10T13:10:04;-1.00;99.90
55213;DHT22;41083;52.932;6.674;2024-01-10T13:12:30;-1.00;99.90
55213;DHT22;41083;52.932;6.674;2024-01-10T13:14:56;-1.00;99.90
55213;DHT22;41083;52.932;6.674;2024-01-10T13:17:21;-1.00;99.90
55213;DHT22;41083;52.932;6.674;2024-01-10T13:19:47;-0.90;99.90
55213;DHT22;41083;52.932;6.674;2024-01-10T13:22:16;-0.90;99.90
55213;DHT22;41083;52.932;6.674;2024-01-10T13:24:47;-0.90;99.90
55213;DHT22;41083;52.932;6.674;2024-01-10T13:27:13;-0.90;99.90
55213;DHT22;41083;52.932;6.674;2024-01-10T13:29:39;-0.90;99.90
55213;DHT22;41083;52.932;6.674;2024-01-10T13:32:05;-0.90;99.90
55213;DHT22;41083;52.932;6.674;2024-01-10T13:34:31;-0.80;99.90
55213;DHT22;41083;52.932;6.674;2024-01-10T13:36:58;-0.80;99.90
55213;DHT22;41083;52.932;6.674;2024-01-10T13:39:23;-0.80;99.90
55213;DHT22;41083;52.932;6.674;2024-01-10T13:41:49;-0.80;99.90
55213;DHT22;41083;52.932;6.674;2024-01-10T13:44:16;-0.80;99.90
55213;DHT22;41083;52.932;6.674;2024-01-10T13:46:41;-0.80;99.90
55213;DHT22;41083;52.932;6.674;2024-01-10T13:49:07;-0.80;99.90
55213;DHT22;41083;52.932;6.674;2024-01-10T13:51:33;-0.80;99.90
55213;DHT22;41083;52.932;6.674;2024-01-10T13:53:58;-0.80;99.90
55213;DHT22;41083;52.932;6.674;2024-01-10T13:56:24;-0.70;99.90
55213;DHT22;41083;52.932;6.674;2024-01-10T13:58:50;-0.70;99.90
55213;DHT22;41083;52.932;6.674;2024-01-10T14:01:15;-0.70;99.90
55213;DHT22;41083;52.932;6.674;2024-01-10T14:03:41;-0.70;99.90
55213;DHT22;41083;52.932;6.674;2024-01-10T14:06:07;-0.70;99.90
55213;DHT22;41083;52.932;6.674;2024-01-10T14:08:32;-0.70;99.90
55213;DHT22;41083;52.932;6.674;2024-01-10T14:10:59;-0.70;99.90
55213;DHT22;41083;52.932;6.674;2024-01-10T14:13:25;-0.70;99.90
55213;DHT22;41083;52.932;6.674;2024-01-10T14:15:50;-0.70;99.90
55213;DHT22;41083;52.932;6.674;2024-01-10T14:18:16;-0.70;99.90
55213;DHT22;41083;52.932;6.674;2024-01-10T14:20:42;-0.70;99.90
55213;DHT22;41083;52.932;6.674;2024-01-10T14:23:08;-0.70;99.90
55213;DHT22;41083;52.932;6.674;2024-01-10T14:25:33;-0.70;99.90
55213;DHT22;41083;52.932;6.674;2024-01-10T14:27:59;-0.70;99.90
55213;DHT22;41083;52.932;6.674;2024-01-10T14:30:26;-0.70;99.90
55213;DHT22;41083;52.932;6.674;2024-01-10T14:32:52;-0.70;99.90
55213;DHT22;41083;52.932;6.674;2024-01-10T14:35:18;-0.80;99.90
55213;DHT22;41083;52.932;6.674;2024-01-10T14:37:44;-0.80;99.90
55213;DHT22;41083;52.932;6.674;2024-01-10T14:40:10;-0.80;99.90
55213;DHT22;41083;52.932;6.674;2024-01-10T14:42:37;-0.80;99.90
55213;DHT22;41083;52.932;6.674;2024-01-10T14:45:03;-0.80;99.90
55213;DHT22;41083;52.932;6.674;2024-01-10T14:47:29;-0.80;99.90
55213;DHT22;41083;52.932;6.674;2024-01-10T14:49:55;-0.80;99.90
55213;DHT22;41083;52.932;6.674;2024-01-10T14:52:23;-0.80;99.90
55213;DHT22;41083;52.932;6.674;2024-01-10T14:54:51;-0.80;99.90
55213;DHT22;41083;52.932;6.674;2024-01-10T14:57:17;-0.90;99.90
55213;DHT22;41083;52.932;6.674;2024-01-10T14:59:44;-0.90;99.90
55213;DHT22;41083;52.932;6.674;2024-01-10T15:02:10;-0.90;99.90
55213;DHT22;41083;52.932;6.674;2024-01-10T15:04:40;-0.90;99.90
55213;DHT22;41083;52.932;6.674;2024-01-10T15:07:06;-0.90;99.90
55213;DHT22;41083;52.932;6.674;2024-01-10T15:09:32;-1.00;99.90
55213;DHT22;41083;52.932;6.674;2024-01-10T15:11:58;-1.00;99.90
55213;DHT22;41083;52.932;6.674;2024-01-10T15:14:23;-1.00;99.90
55213;DHT22;41083;52.932;6.674;2024-01-10T15:16:49;-1.00;99.90
55213;DHT22;41083;52.932;6.674;2024-01-10T15:19:15;-1.10;99.90
55213;DHT22;41083;52.932;6.674;2024-01-10T15:21:41;-1.10;99.90
55213;DHT22;41083;52.932;6.674;2024-01-10T15:24:06;-1.10;99.90
55213;DHT22;41083;52.932;6.674;2024-01-10T15:26:32;-1.10;99.90
55213;DHT22;41083;52.932;6.674;2024-01-10T15:28:58;-1.10;99.90
55213;DHT22;41083;52.932;6.674;2024-01-10T15:31:24;-1.20;99.90
55213;DHT22;41083;52.932;6.674;2024-01-10T15:33:51;-1.20;99.90
55213;DHT22;41083;52.932;6.674;2024-01-10T15:36:17;-1.20;99.90